Towcester, United Kingdom
Current Conditions -  °F | °C
As of 6:20 AM on Friday 31 Oct 2014 (Local Time) from EGTK Reporting Station
Haze Haze  
Wind Chill: 55°   Ceiling: Unl
Heat Index: 55°   Visibility: 1.5mi
Dew Point: 55°   Wind: 6mph
Humidity: 100%   Direction: 160°SSE
Pressure: 30"   Gusts: NA
Location:  52.13°N, 0.99°W
Report Text: EGTK 310620Z 16005KT 2500 BR FEW008 13/13 Q1016
Loading
Personal Weather Stations






























Interactive Weather Map
Tropical Storm Tracking
New forecast layout! Learn more

10-Day Weather Forecast

Advertisements
Track Severe Weather on mobile